createdAt,value
2023-02-14T00:01:55.891Z,4.00
2023-02-14T00:04:22.564Z,3.90
2023-02-14T00:06:49.160Z,3.90
2023-02-14T00:09:18.305Z,3.90
2023-02-14T00:11:45.265Z,3.80
2023-02-14T00:14:30.580Z,3.80
2023-02-14T00:16:57.231Z,3.80
2023-02-14T00:19:24.116Z,3.80
2023-02-14T00:21:50.790Z,3.80
2023-02-14T00:24:18.638Z,3.80
2023-02-14T00:26:45.261Z,3.80
2023-02-14T00:29:13.157Z,3.90
2023-02-14T00:31:40.586Z,3.90
2023-02-14T00:34:07.713Z,3.90
2023-02-14T00:36:34.662Z,3.90
2023-02-14T00:39:04.907Z,3.90
2023-02-14T00:41:31.643Z,3.90
2023-02-14T00:43:58.260Z,3.90
2023-02-14T00:46:25.264Z,3.90
2023-02-14T00:48:52.492Z,3.90
2023-02-14T00:51:19.493Z,3.80
2023-02-14T00:53:46.695Z,3.80
2023-02-14T00:56:13.518Z,3.80
2023-02-14T00:58:40.322Z,3.80
2023-02-14T01:01:07.134Z,3.80
2023-02-14T01:03:35.232Z,3.80
2023-02-14T01:06:01.781Z,3.80
2023-02-14T01:08:28.331Z,3.80
2023-02-14T01:10:54.893Z,3.80
2023-02-14T01:13:21.760Z,3.70
2023-02-14T01:15:49.382Z,3.70
2023-02-14T01:18:16.360Z,3.80
2023-02-14T01:20:42.882Z,3.70
2023-02-14T01:23:09.443Z,3.60
2023-02-14T01:25:39.908Z,3.60
2023-02-14T01:28:06.730Z,3.60
2023-02-14T01:30:33.225Z,3.60
2023-02-14T01:32:59.801Z,3.60
2023-02-14T01:35:26.399Z,3.60
2023-02-14T01:37:52.906Z,3.60
2023-02-14T01:40:19.533Z,3.60
2023-02-14T01:42:46.097Z,3.60
2023-02-14T01:45:18.475Z,3.60
2023-02-14T01:47:46.451Z,3.50
2023-02-14T01:50:19.520Z,3.50
2023-02-14T01:52:49.045Z,3.50
2023-02-14T01:55:18.341Z,3.50
2023-02-14T01:58:14.481Z,3.50
2023-02-14T02:00:56.945Z,3.60
2023-02-14T02:03:29.882Z,3.60
2023-02-14T02:05:59.535Z,3.50
2023-02-14T02:08:26.302Z,3.50
2023-02-14T02:10:52.806Z,3.50
2023-02-14T02:13:20.861Z,3.50
2023-02-14T02:16:12.788Z,3.50
2023-02-14T02:19:13.563Z,3.40
2023-02-14T02:21:53.537Z,3.40
2023-02-14T02:24:30.590Z,3.50
2023-02-14T02:27:03.984Z,3.50
2023-02-14T02:29:30.485Z,3.40
2023-02-14T02:32:15.133Z,3.40
2023-02-14T02:34:51.047Z,3.40
2023-02-14T02:37:36.475Z,3.40
2023-02-14T02:40:28.149Z,3.40
2023-02-14T02:43:04.882Z,3.40
2023-02-14T02:45:34.269Z,3.40
2023-02-14T02:48:15.106Z,3.30
2023-02-14T02:51:01.892Z,3.30
2023-02-14T02:53:43.540Z,3.20
2023-02-14T02:56:31.909Z,3.20
2023-02-14T02:59:06.641Z,3.20
2023-02-14T03:01:37.760Z,3.20
2023-02-14T03:04:25.530Z,3.20
2023-02-14T03:06:52.377Z,3.20
2023-02-14T03:09:18.849Z,3.20
2023-02-14T03:12:11.817Z,3.20
2023-02-14T03:14:46.058Z,3.20
2023-02-14T03:17:21.501Z,3.20
2023-02-14T03:20:18.016Z,3.20
2023-02-14T03:22:44.638Z,3.20
2023-02-14T03:25:17.298Z,3.20
2023-02-14T03:27:49.954Z,3.20
2023-02-14T03:30:22.375Z,3.20
2023-02-14T03:32:58.358Z,3.20
2023-02-14T03:35:45.922Z,3.20
2023-02-14T03:38:20.472Z,3.20
2023-02-14T03:40:58.017Z,3.20
2023-02-14T03:43:26.600Z,3.20
2023-02-14T03:45:56.802Z,3.30
2023-02-14T03:48:24.753Z,3.30
2023-02-14T03:50:52.296Z,3.20
2023-02-14T03:53:21.460Z,3.10
2023-02-14T03:55:53.002Z,3.10
2023-02-14T03:58:26.497Z,3.00
2023-02-14T04:00:57.684Z,3.00
2023-02-14T04:03:25.404Z,3.00
2023-02-14T04:05:52.348Z,2.90
2023-02-14T04:08:23.567Z,3.00
2023-02-14T04:10:51.561Z,2.90
2023-02-14T04:13:18.173Z,2.90
2023-02-14T04:15:44.881Z,2.90
2023-02-14T04:18:30.366Z,2.90
2023-02-14T04:20:56.952Z,2.90
2023-02-14T04:23:23.620Z,3.00
2023-02-14T04:25:50.133Z,2.80
2023-02-14T04:28:16.707Z,2.80
2023-02-14T04:30:43.356Z,2.80
2023-02-14T04:33:10.656Z,2.70
2023-02-14T04:35:37.235Z,2.70
2023-02-14T04:38:04.265Z,2.70
2023-02-14T04:40:30.810Z,2.70
2023-02-14T04:42:57.594Z,2.70
2023-02-14T04:45:24.138Z,2.80
2023-02-14T04:47:50.731Z,2.80
2023-02-14T04:50:17.486Z,2.80
2023-02-14T04:52:44.052Z,2.70
2023-02-14T04:55:10.794Z,2.70
2023-02-14T04:57:37.501Z,2.70
2023-02-14T05:00:04.998Z,2.70
2023-02-14T05:02:31.651Z,2.70
2023-02-14T05:04:58.173Z,2.70
2023-02-14T05:07:24.694Z,2.80
2023-02-14T05:09:51.251Z,2.80
2023-02-14T05:12:17.841Z,2.80
2023-02-14T05:14:44.446Z,2.80
2023-02-14T05:17:11.192Z,2.80
2023-02-14T05:19:37.762Z,2.70
2023-02-14T05:22:04.286Z,2.80
2023-02-14T05:24:30.851Z,2.80
2023-02-14T05:26:57.466Z,2.80
2023-02-14T05:29:24.333Z,2.70
2023-02-14T05:31:50.928Z,2.70
2023-02-14T05:34:18.546Z,2.70
2023-02-14T05:36:45.070Z,2.70
2023-02-14T05:39:14.497Z,2.60
2023-02-14T05:41:41.510Z,2.50
2023-02-14T05:44:08.084Z,2.40
2023-02-14T05:46:34.638Z,2.60
2023-02-14T05:49:01.222Z,2.40
2023-02-14T05:51:27.820Z,2.50
2023-02-14T05:53:54.343Z,2.60
2023-02-14T05:56:20.904Z,2.60
2023-02-14T05:58:47.493Z,2.60
2023-02-14T06:01:14.279Z,2.60
2023-02-14T06:03:40.813Z,2.70
2023-02-14T06:06:07.518Z,2.60
2023-02-14T06:08:34.032Z,2.60
2023-02-14T06:11:00.854Z,2.60
2023-02-14T06:13:27.574Z,2.60
2023-02-14T06:15:54.114Z,2.60
2023-02-14T06:18:20.657Z,2.60
2023-02-14T06:20:47.296Z,2.60
2023-02-14T06:23:13.842Z,2.60
2023-02-14T06:25:40.371Z,2.50
2023-02-14T06:28:06.864Z,2.50
2023-02-14T06:30:33.519Z,2.50
2023-02-14T06:33:00.141Z,2.50
2023-02-14T06:35:26.740Z,2.70
2023-02-14T06:37:53.341Z,2.60
2023-02-14T06:40:20.046Z,2.70
2023-02-14T06:42:46.572Z,2.70
2023-02-14T06:45:13.082Z,2.70
2023-02-14T06:47:39.673Z,2.70
2023-02-14T06:50:06.610Z,2.70
2023-02-14T06:52:33.534Z,2.70
2023-02-14T06:55:00.069Z,2.70
2023-02-14T06:57:26.595Z,2.70
2023-02-14T06:59:53.190Z,2.60
2023-02-14T07:02:20.003Z,2.50
2023-02-14T07:04:46.733Z,2.50
2023-02-14T07:07:13.317Z,2.50
2023-02-14T07:09:39.899Z,2.60
2023-02-14T07:12:06.587Z,2.60
2023-02-14T07:14:33.126Z,2.60
2023-02-14T07:16:59.640Z,2.70
2023-02-14T07:19:26.181Z,2.60
2023-02-14T07:21:52.889Z,2.60
2023-02-14T07:24:19.436Z,2.50
2023-02-14T07:26:46.034Z,2.40
2023-02-14T07:29:12.608Z,2.40
2023-02-14T07:31:39.205Z,2.40
2023-02-14T07:34:05.803Z,2.40
2023-02-14T07:36:32.418Z,2.50
2023-02-14T07:38:58.989Z,2.40
2023-02-14T07:41:25.677Z,2.40
2023-02-14T07:43:52.194Z,2.50
2023-02-14T07:46:18.880Z,2.40
2023-02-14T07:48:45.454Z,2.50
2023-02-14T07:51:12.118Z,2.60
2023-02-14T07:53:38.735Z,2.60
2023-02-14T07:56:05.441Z,2.60
2023-02-14T07:58:32.006Z,2.60
2023-02-14T08:00:58.942Z,2.60
2023-02-14T08:03:25.681Z,2.60
2023-02-14T08:05:57.046Z,2.60
2023-02-14T08:08:24.530Z,2.70
2023-02-14T08:10:51.090Z,2.70
2023-02-14T08:13:17.654Z,2.80
2023-02-14T08:16:02.838Z,2.80
2023-02-14T08:18:29.441Z,2.80
2023-02-14T08:20:56.502Z,2.90
2023-02-14T08:23:23.116Z,2.90
2023-02-14T08:25:50.386Z,3.00
2023-02-14T08:28:17.238Z,3.00
2023-02-14T08:30:44.518Z,3.10
2023-02-14T08:33:11.490Z,3.20
2023-02-14T08:35:38.676Z,3.20
2023-02-14T08:38:05.626Z,3.20
2023-02-14T08:40:32.984Z,3.20
2023-02-14T08:42:59.593Z,3.20
2023-02-14T08:45:26.697Z,3.20
2023-02-14T08:47:53.261Z,3.20
2023-02-14T08:50:19.881Z,3.30
2023-02-14T08:52:46.559Z,3.20
2023-02-14T08:55:13.797Z,3.30
2023-02-14T08:57:40.681Z,3.40
2023-02-14T09:00:08.134Z,3.40
2023-02-14T09:02:34.776Z,3.50
2023-02-14T09:05:01.432Z,3.40
2023-02-14T09:07:27.980Z,3.30
2023-02-14T09:09:54.717Z,3.40
2023-02-14T09:12:21.324Z,3.50
2023-02-14T09:14:47.912Z,3.50
2023-02-14T09:17:15.174Z,3.60
2023-02-14T09:19:42.202Z,3.50
2023-02-14T09:22:09.938Z,3.60
2023-02-14T09:24:37.570Z,3.60
2023-02-14T09:27:04.520Z,3.70
2023-02-14T09:29:31.559Z,3.70
2023-02-14T09:31:59.732Z,3.70
2023-02-14T09:34:45.914Z,3.80
2023-02-14T09:37:32.005Z,3.80
2023-02-14T09:39:58.553Z,3.70
2023-02-14T09:42:25.093Z,3.80
2023-02-14T09:44:59.456Z,3.80
2023-02-14T09:47:35.977Z,3.90
2023-02-14T09:50:07.332Z,3.90
2023-02-14T09:52:34.142Z,3.90
2023-02-14T09:55:02.590Z,3.90
2023-02-14T09:57:49.495Z,3.80
2023-02-14T10:00:26.577Z,3.80
2023-02-14T10:02:59.256Z,3.70
2023-02-14T10:05:27.383Z,3.80
2023-02-14T10:08:05.671Z,3.90
2023-02-14T10:10:32.287Z,4.00
2023-02-14T10:13:01.914Z,4.10
2023-02-14T10:15:32.098Z,4.10
2023-02-14T10:18:02.646Z,4.10
2023-02-14T10:20:32.299Z,4.20
2023-02-14T10:23:06.484Z,4.30
2023-02-14T10:26:05.690Z,4.30
2023-02-14T10:28:50.317Z,4.30
2023-02-14T10:31:19.834Z,4.30
2023-02-14T10:33:51.924Z,4.40
2023-02-14T10:36:22.602Z,4.50
2023-02-14T10:39:12.215Z,4.50
2023-02-14T10:41:42.126Z,4.50
2023-02-14T10:44:40.939Z,4.60
2023-02-14T10:47:07.608Z,4.50
2023-02-14T10:49:46.291Z,4.50
2023-02-14T10:52:31.611Z,4.60
2023-02-14T10:54:59.633Z,4.60
2023-02-14T10:57:28.968Z,4.60
2023-02-14T11:00:01.788Z,4.70
2023-02-14T11:02:32.378Z,4.60
2023-02-14T11:04:59.861Z,4.60
2023-02-14T11:07:26.589Z,4.50
2023-02-14T11:09:53.160Z,4.60
2023-02-14T11:12:37.434Z,4.60
2023-02-14T11:15:19.417Z,4.60
2023-02-14T11:17:48.290Z,4.40
2023-02-14T11:20:23.780Z,4.70
2023-02-14T11:22:50.488Z,4.70
2023-02-14T11:25:21.432Z,4.80
2023-02-14T11:27:50.132Z,4.90
2023-02-14T11:30:26.069Z,5.00
2023-02-14T11:32:55.881Z,5.10
2023-02-14T11:35:26.882Z,5.30
2023-02-14T11:37:57.043Z,5.40
2023-02-14T11:40:28.847Z,5.50
2023-02-14T11:43:12.792Z,5.60
2023-02-14T11:45:41.355Z,5.70
2023-02-14T11:48:09.956Z,5.80
2023-02-14T11:50:38.307Z,5.80
2023-02-14T11:53:04.972Z,5.90
2023-02-14T11:55:33.703Z,5.80
2023-02-14T11:58:01.369Z,5.80
2023-02-14T12:00:30.631Z,5.80
2023-02-14T12:02:58.821Z,5.70
2023-02-14T12:05:30.409Z,5.80
2023-02-14T12:07:58.688Z,5.70
2023-02-14T12:10:28.955Z,5.90
2023-02-14T12:13:04.704Z,5.80
2023-02-14T12:15:38.569Z,5.80
2023-02-14T12:18:15.360Z,6.00
2023-02-14T12:20:45.746Z,6.10
2023-02-14T12:23:18.352Z,6.30
2023-02-14T12:25:56.320Z,6.40
2023-02-14T12:28:28.044Z,6.50
2023-02-14T12:30:54.637Z,6.70
2023-02-14T12:33:23.409Z,6.90
2023-02-14T12:35:52.889Z,6.90
2023-02-14T12:38:31.322Z,6.80
2023-02-14T12:41:03.738Z,6.80
2023-02-14T12:43:47.800Z,7.00
2023-02-14T12:46:25.887Z,6.90
2023-02-14T12:48:55.470Z,6.90
2023-02-14T12:51:37.298Z,6.80
2023-02-14T12:54:09.959Z,6.90
2023-02-14T12:56:50.912Z,7.00
2023-02-14T12:59:29.001Z,7.10
2023-02-14T13:02:06.672Z,7.30
2023-02-14T13:04:53.394Z,7.30
2023-02-14T13:07:28.746Z,7.30
2023-02-14T13:10:04.800Z,7.40
2023-02-14T13:12:37.265Z,7.40
2023-02-14T13:15:06.972Z,7.50
2023-02-14T13:17:36.477Z,7.40
2023-02-14T13:20:06.263Z,7.60
2023-02-14T13:22:34.051Z,7.60
2023-02-14T13:25:04.013Z,7.50
2023-02-14T13:27:36.452Z,7.70
2023-02-14T13:30:35.636Z,7.70
2023-02-14T13:33:05.704Z,7.40
2023-02-14T13:35:32.767Z,7.80
2023-02-14T13:38:01.922Z,7.90
2023-02-14T13:40:29.332Z,7.80
2023-02-14T13:42:57.038Z,7.80
2023-02-14T13:45:29.463Z,7.80
2023-02-14T13:48:12.859Z,7.60
2023-02-14T13:50:41.003Z,7.60
2023-02-14T13:53:12.071Z,7.30
2023-02-14T13:55:43.721Z,7.30
2023-02-14T13:58:21.590Z,7.40
2023-02-14T14:00:49.075Z,7.50
2023-02-14T14:03:36.755Z,7.40
2023-02-14T14:06:10.864Z,7.40
2023-02-14T14:08:44.607Z,7.30
2023-02-14T14:11:12.924Z,7.30
2023-02-14T14:13:42.618Z,7.30
2023-02-14T14:16:27.614Z,7.40
2023-02-14T14:18:54.254Z,7.70
2023-02-14T14:21:25.495Z,7.90
2023-02-14T14:24:10.666Z,8.00
2023-02-14T14:26:39.682Z,8.00
2023-02-14T14:29:11.318Z,7.90
2023-02-14T14:31:38.236Z,7.90
2023-02-14T14:34:04.776Z,7.80
2023-02-14T14:36:31.314Z,7.90
2023-02-14T14:38:57.846Z,7.70
2023-02-14T14:41:28.906Z,7.80
2023-02-14T14:43:55.437Z,7.90
2023-02-14T14:46:22.398Z,7.80
2023-02-14T14:48:50.362Z,7.80
2023-02-14T14:51:24.765Z,7.90
2023-02-14T14:53:55.865Z,7.70
2023-02-14T14:56:24.959Z,7.50
2023-02-14T14:58:51.502Z,7.40
2023-02-14T15:01:47.868Z,7.30
2023-02-14T15:04:14.455Z,7.10
2023-02-14T15:06:41.084Z,6.90
2023-02-14T15:09:11.806Z,6.80
2023-02-14T15:11:57.712Z,6.80
2023-02-14T15:14:25.757Z,6.80
2023-02-14T15:16:57.562Z,6.70
2023-02-14T15:19:37.100Z,6.60
2023-02-14T15:22:05.866Z,6.60
2023-02-14T15:24:35.100Z,6.60
2023-02-14T15:27:02.563Z,6.50
2023-02-14T15:29:30.600Z,6.40
2023-02-14T15:31:59.852Z,6.60
2023-02-14T15:34:30.776Z,6.60
2023-02-14T15:37:03.424Z,6.50
2023-02-14T15:39:34.306Z,6.60
2023-02-14T15:42:00.894Z,6.50
2023-02-14T15:44:27.417Z,6.50
2023-02-14T15:46:55.651Z,6.50
2023-02-14T15:49:31.443Z,6.50
2023-02-14T15:52:00.344Z,6.40
2023-02-14T15:54:33.352Z,6.30
2023-02-14T15:57:00.177Z,6.30
2023-02-14T15:59:29.677Z,6.10
2023-02-14T16:02:03.939Z,6.10
2023-02-14T16:04:32.426Z,6.00
2023-02-14T16:07:17.531Z,6.00
2023-02-14T16:09:44.082Z,6.00
2023-02-14T16:12:28.822Z,5.90
2023-02-14T16:15:14.302Z,5.80
2023-02-14T16:17:41.967Z,5.70
2023-02-14T16:20:27.862Z,5.60
2023-02-14T16:23:13.522Z,5.60
2023-02-14T16:25:43.318Z,5.50
2023-02-14T16:28:09.921Z,5.50
2023-02-14T16:30:38.091Z,5.40
2023-02-14T16:33:06.345Z,5.40
2023-02-14T16:35:33.183Z,5.30
2023-02-14T16:37:59.732Z,5.20
2023-02-14T16:40:27.324Z,5.20
2023-02-14T16:42:54.873Z,5.10
2023-02-14T16:45:21.459Z,5.00
2023-02-14T16:47:48.396Z,5.00
2023-02-14T16:50:15.772Z,4.90
2023-02-14T16:52:43.935Z,4.90
2023-02-14T16:55:15.216Z,4.90
2023-02-14T16:57:42.957Z,4.70
2023-02-14T17:00:10.195Z,4.50
2023-02-14T17:02:36.942Z,4.50
2023-02-14T17:05:03.705Z,4.40
2023-02-14T17:07:32.051Z,4.40
2023-02-14T17:10:01.966Z,4.20
2023-02-14T17:12:30.710Z,4.20
2023-02-14T17:14:59.433Z,4.10
2023-02-14T17:17:26.625Z,4.00
2023-02-14T17:19:53.298Z,3.90
2023-02-14T17:22:20.024Z,3.80
2023-02-14T17:24:46.574Z,3.90
2023-02-14T17:27:13.269Z,3.70
2023-02-14T17:29:39.788Z,3.50
2023-02-14T17:32:06.429Z,3.40
2023-02-14T17:34:33.618Z,3.40
2023-02-14T17:37:00.239Z,3.40
2023-02-14T17:39:26.836Z,3.40
2023-02-14T17:41:53.453Z,3.30
2023-02-14T17:44:19.970Z,3.30
2023-02-14T17:46:46.851Z,3.30
2023-02-14T17:49:13.841Z,3.40
2023-02-14T17:51:40.376Z,3.20
2023-02-14T17:54:06.967Z,3.20
2023-02-14T17:56:33.493Z,3.10
2023-02-14T17:59:00.116Z,3.10
2023-02-14T18:01:28.573Z,3.00
2023-02-14T18:03:55.216Z,3.50
2023-02-14T18:06:22.033Z,2.90
2023-02-14T18:08:49.852Z,2.80
2023-02-14T18:11:17.217Z,2.80
2023-02-14T18:13:44.434Z,2.80
2023-02-14T18:16:13.059Z,2.80
2023-02-14T18:18:39.640Z,2.80
2023-02-14T18:21:07.768Z,3.30
2023-02-14T18:23:34.854Z,2.80
2023-02-14T18:26:04.524Z,2.80
2023-02-14T18:28:31.765Z,2.70
2023-02-14T18:31:06.181Z,2.70
2023-02-14T18:33:33.528Z,2.70
2023-02-14T18:36:07.290Z,2.70
2023-02-14T18:38:34.573Z,2.70
2023-02-14T18:41:08.573Z,2.60
2023-02-14T18:43:35.834Z,2.70
2023-02-14T18:46:06.733Z,2.70
2023-02-14T18:48:33.749Z,2.70
2023-02-14T18:51:11.042Z,2.60
2023-02-14T18:53:38.134Z,2.70
2023-02-14T18:56:05.347Z,2.70
2023-02-14T18:58:32.021Z,2.60
2023-02-14T19:00:58.649Z,2.70
2023-02-14T19:03:25.309Z,2.70
2023-02-14T19:05:53.108Z,2.70
2023-02-14T19:08:19.755Z,2.70
2023-02-14T19:10:46.241Z,2.80
2023-02-14T19:13:12.927Z,2.90
2023-02-14T19:15:39.454Z,2.80
2023-02-14T19:18:05.997Z,2.80
2023-02-14T19:20:32.500Z,2.90
2023-02-14T19:22:59.053Z,2.90
2023-02-14T19:25:25.973Z,2.90
2023-02-14T19:27:52.909Z,2.90
2023-02-14T19:30:19.637Z,3.00
2023-02-14T19:32:46.257Z,2.90
2023-02-14T19:35:12.813Z,2.90
2023-02-14T19:37:39.356Z,3.00
2023-02-14T19:40:06.423Z,2.90
2023-02-14T19:42:32.955Z,2.90
2023-02-14T19:44:59.723Z,2.90
2023-02-14T19:47:43.273Z,2.90
2023-02-14T19:50:12.770Z,3.00
2023-02-14T19:52:39.583Z,3.00
2023-02-14T19:55:07.379Z,2.90
2023-02-14T19:57:33.926Z,2.90
2023-02-14T20:00:00.652Z,3.00
2023-02-14T20:02:27.220Z,2.90
2023-02-14T20:04:58.713Z,2.90
2023-02-14T20:07:25.320Z,2.90
2023-02-14T20:09:51.867Z,2.50
2023-02-14T20:12:18.427Z,2.90
2023-02-14T20:14:51.392Z,2.90
2023-02-14T20:17:18.315Z,2.90
2023-02-14T20:19:45.164Z,2.90
2023-02-14T20:22:11.891Z,2.90
2023-02-14T20:24:38.492Z,2.80
2023-02-14T20:27:05.051Z,2.80
2023-02-14T20:29:31.866Z,2.90
2023-02-14T20:32:00.076Z,2.90
2023-02-14T20:34:27.259Z,2.90
2023-02-14T20:36:55.533Z,2.80
2023-02-14T20:39:23.496Z,2.90
2023-02-14T20:41:50.276Z,2.80
2023-02-14T20:44:19.748Z,2.90
2023-02-14T20:46:46.816Z,2.80
2023-02-14T20:49:14.126Z,2.80
2023-02-14T20:51:41.305Z,2.80
2023-02-14T20:54:08.088Z,2.80
2023-02-14T20:56:34.798Z,2.80
2023-02-14T20:59:04.292Z,2.80
2023-02-14T21:01:30.884Z,2.70
2023-02-14T21:03:57.536Z,2.70
2023-02-14T21:06:25.216Z,2.70
2023-02-14T21:08:51.847Z,2.60
2023-02-14T21:11:20.135Z,2.60
2023-02-14T21:13:46.659Z,2.60
2023-02-14T21:16:17.121Z,2.50
2023-02-14T21:18:47.814Z,2.50
2023-02-14T21:21:15.522Z,2.50
2023-02-14T21:23:42.081Z,2.50
2023-02-14T21:26:09.611Z,2.50
2023-02-14T21:28:36.281Z,2.50
2023-02-14T21:31:07.977Z,2.50
2023-02-14T21:33:34.777Z,2.40
2023-02-14T21:36:07.890Z,2.40
2023-02-14T21:38:34.920Z,2.40
2023-02-14T21:41:05.652Z,2.30
2023-02-14T21:43:36.439Z,2.30
2023-02-14T21:46:06.959Z,2.20
2023-02-14T21:48:52.391Z,2.20
2023-02-14T21:51:19.475Z,2.20
2023-02-14T21:53:46.148Z,2.20
2023-02-14T21:56:16.433Z,2.20
2023-02-14T21:58:44.310Z,2.20
2023-02-14T22:01:14.707Z,2.20
2023-02-14T22:03:41.215Z,2.20
2023-02-14T22:06:08.095Z,2.10
2023-02-14T22:08:34.617Z,2.10
2023-02-14T22:11:04.796Z,2.10
2023-02-14T22:13:31.341Z,2.10
2023-02-14T22:16:05.189Z,2.20
2023-02-14T22:18:32.064Z,2.20
2023-02-14T22:20:59.886Z,2.10
2023-02-14T22:23:29.017Z,2.10
2023-02-14T22:25:55.601Z,2.10
2023-02-14T22:28:22.212Z,2.10
2023-02-14T22:30:48.768Z,2.10
2023-02-14T22:33:15.295Z,2.10
2023-02-14T22:35:41.791Z,2.10
2023-02-14T22:38:08.334Z,2.00
2023-02-14T22:40:35.542Z,1.70
2023-02-14T22:43:02.098Z,1.90
2023-02-14T22:45:28.606Z,1.90
2023-02-14T22:47:55.130Z,1.90
2023-02-14T22:50:21.631Z,1.90
2023-02-14T22:52:48.158Z,1.90
2023-02-14T22:55:14.734Z,1.90
2023-02-14T22:57:41.306Z,1.90
2023-02-14T23:00:11.514Z,1.90
2023-02-14T23:02:38.547Z,1.90
2023-02-14T23:05:05.232Z,1.90
2023-02-14T23:07:32.971Z,1.80
2023-02-14T23:09:59.527Z,1.90
2023-02-14T23:12:44.739Z,1.80
2023-02-14T23:15:29.769Z,1.80
2023-02-14T23:18:14.960Z,1.70
2023-02-14T23:20:59.931Z,1.70
2023-02-14T23:23:30.114Z,1.70
2023-02-14T23:25:56.618Z,1.70
2023-02-14T23:28:23.133Z,1.60
2023-02-14T23:30:49.652Z,1.60
2023-02-14T23:33:16.383Z,1.60
2023-02-14T23:35:42.933Z,1.70
2023-02-14T23:38:09.674Z,1.60
2023-02-14T23:40:56.227Z,1.50
2023-02-14T23:43:22.802Z,1.40
2023-02-14T23:45:49.416Z,1.40
2023-02-14T23:48:16.009Z,1.40
2023-02-14T23:50:42.533Z,1.30
2023-02-14T23:53:09.172Z,1.20
2023-02-14T23:55:36.221Z,1.30
2023-02-14T23:58:02.899Z,1.30
